sensor_id;sensor_type;location;lat;lon;timestamp;P1;durP1;ratioP1;P2;durP2;ratioP2
79268;SDS011;68714;48.586;7.772;2023-04-25T00:01:33;2.05;;;0.73;;
79268;SDS011;68714;48.586;7.772;2023-04-25T00:04:01;1.80;;;0.93;;
79268;SDS011;68714;48.586;7.772;2023-04-25T00:06:27;2.45;;;1.08;;
79268;SDS011;68714;48.586;7.772;2023-04-25T00:08:53;1.88;;;0.90;;
79268;SDS011;68714;48.586;7.772;2023-04-25T00:11:19;1.95;;;0.95;;
79268;SDS011;68714;48.586;7.772;2023-04-25T00:13:44;2.78;;;0.88;;
79268;SDS011;68714;48.586;7.772;2023-04-25T00:16:11;2.05;;;1.02;;
79268;SDS011;68714;48.586;7.772;2023-04-25T00:18:39;1.70;;;1.00;;
79268;SDS011;68714;48.586;7.772;2023-04-25T00:21:05;1.77;;;0.80;;
79268;SDS011;68714;48.586;7.772;2023-04-25T00:23:31;1.33;;;0.80;;
79268;SDS011;68714;48.586;7.772;2023-04-25T00:25:56;2.65;;;0.88;;
79268;SDS011;68714;48.586;7.772;2023-04-25T00:28:22;1.77;;;0.80;;
79268;SDS011;68714;48.586;7.772;2023-04-25T00:30:47;1.65;;;0.65;;
79268;SDS011;68714;48.586;7.772;2023-04-25T00:33:12;1.80;;;0.80;;
79268;SDS011;68714;48.586;7.772;2023-04-25T00:35:38;2.58;;;0.95;;
79268;SDS011;68714;48.586;7.772;2023-04-25T00:38:03;1.77;;;0.70;;
79268;SDS011;68714;48.586;7.772;2023-04-25T00:40:29;3.65;;;1.05;;
79268;SDS011;68714;48.586;7.772;2023-04-25T00:42:54;1.90;;;0.90;;
79268;SDS011;68714;48.586;7.772;2023-04-25T00:45:20;2.05;;;1.02;;
79268;SDS011;68714;48.586;7.772;2023-04-25T00:47:45;2.47;;;1.08;;
79268;SDS011;68714;48.586;7.772;2023-04-25T00:50:11;3.83;;;1.15;;
79268;SDS011;68714;48.586;7.772;2023-04-25T00:52:40;2.60;;;1.08;;
79268;SDS011;68714;48.586;7.772;2023-04-25T00:55:08;2.53;;;1.10;;
79268;SDS011;68714;48.586;7.772;2023-04-25T00:57:36;2.83;;;1.17;;
79268;SDS011;68714;48.586;7.772;2023-04-25T01:00:03;2.00;;;1.27;;
79268;SDS011;68714;48.586;7.772;2023-04-25T01:02:30;1.65;;;1.10;;
79268;SDS011;68714;48.586;7.772;2023-04-25T01:04:57;3.28;;;1.75;;
79268;SDS011;68714;48.586;7.772;2023-04-25T01:07:23;3.53;;;1.30;;
79268;SDS011;68714;48.586;7.772;2023-04-25T01:09:48;2.65;;;1.38;;
79268;SDS011;68714;48.586;7.772;2023-04-25T01:12:16;3.70;;;1.77;;
79268;SDS011;68714;48.586;7.772;2023-04-25T01:14:42;7.45;;;3.83;;
79268;SDS011;68714;48.586;7.772;2023-04-25T01:17:08;3.17;;;1.58;;
79268;SDS011;68714;48.586;7.772;2023-04-25T01:19:34;3.13;;;1.60;;
79268;SDS011;68714;48.586;7.772;2023-04-25T01:22:00;3.65;;;1.52;;
79268;SDS011;68714;48.586;7.772;2023-04-25T01:24:26;4.93;;;3.40;;
79268;SDS011;68714;48.586;7.772;2023-04-25T01:26:52;5.03;;;3.30;;
79268;SDS011;68714;48.586;7.772;2023-04-25T01:29:18;5.00;;;2.22;;
79268;SDS011;68714;48.586;7.772;2023-04-25T01:31:46;2.83;;;1.70;;
79268;SDS011;68714;48.586;7.772;2023-04-25T01:34:12;3.10;;;1.95;;
79268;SDS011;68714;48.586;7.772;2023-04-25T01:36:38;3.80;;;2.08;;
79268;SDS011;68714;48.586;7.772;2023-04-25T01:39:04;5.50;;;3.10;;
79268;SDS011;68714;48.586;7.772;2023-04-25T01:41:30;5.57;;;2.90;;
79268;SDS011;68714;48.586;7.772;2023-04-25T01:43:55;3.72;;;2.20;;
79268;SDS011;68714;48.586;7.772;2023-04-25T01:46:21;3.72;;;1.63;;
79268;SDS011;68714;48.586;7.772;2023-04-25T01:48:46;1.75;;;1.35;;
79268;SDS011;68714;48.586;7.772;2023-04-25T01:51:12;2.08;;;1.33;;
79268;SDS011;68714;48.586;7.772;2023-04-25T01:53:38;3.83;;;2.00;;
79268;SDS011;68714;48.586;7.772;2023-04-25T01:56:04;3.03;;;1.63;;
79268;SDS011;68714;48.586;7.772;2023-04-25T01:58:30;4.53;;;1.60;;
79268;SDS011;68714;48.586;7.772;2023-04-25T02:00:55;2.53;;;1.67;;
79268;SDS011;68714;48.586;7.772;2023-04-25T02:03:21;2.00;;;1.40;;
79268;SDS011;68714;48.586;7.772;2023-04-25T02:05:46;2.17;;;1.63;;
79268;SDS011;68714;48.586;7.772;2023-04-25T02:08:12;2.50;;;1.65;;
79268;SDS011;68714;48.586;7.772;2023-04-25T02:10:37;2.58;;;1.55;;
79268;SDS011;68714;48.586;7.772;2023-04-25T02:13:03;2.58;;;1.63;;
79268;SDS011;68714;48.586;7.772;2023-04-25T02:15:30;3.20;;;1.65;;
79268;SDS011;68714;48.586;7.772;2023-04-25T02:17:55;5.10;;;1.70;;
79268;SDS011;68714;48.586;7.772;2023-04-25T02:20:21;3.15;;;1.48;;
79268;SDS011;68714;48.586;7.772;2023-04-25T02:22:48;3.20;;;1.83;;
79268;SDS011;68714;48.586;7.772;2023-04-25T02:25:13;2.10;;;1.48;;
79268;SDS011;68714;48.586;7.772;2023-04-25T02:27:40;2.42;;;1.75;;
79268;SDS011;68714;48.586;7.772;2023-04-25T02:30:06;4.25;;;1.92;;
79268;SDS011;68714;48.586;7.772;2023-04-25T02:32:32;2.28;;;1.45;;
79268;SDS011;68714;48.586;7.772;2023-04-25T02:34:59;2.65;;;1.73;;
79268;SDS011;68714;48.586;7.772;2023-04-25T02:37:30;2.35;;;1.73;;
79268;SDS011;68714;48.586;7.772;2023-04-25T02:39:56;1.70;;;1.30;;
79268;SDS011;68714;48.586;7.772;2023-04-25T02:42:22;2.63;;;1.35;;
79268;SDS011;68714;48.586;7.772;2023-04-25T02:44:47;1.30;;;1.10;;
79268;SDS011;68714;48.586;7.772;2023-04-25T02:47:12;2.42;;;1.20;;
79268;SDS011;68714;48.586;7.772;2023-04-25T02:49:38;2.70;;;1.42;;
79268;SDS011;68714;48.586;7.772;2023-04-25T02:52:03;1.63;;;1.40;;
79268;SDS011;68714;48.586;7.772;2023-04-25T02:54:29;3.72;;;1.40;;
79268;SDS011;68714;48.586;7.772;2023-04-25T02:56:55;2.17;;;1.40;;
79268;SDS011;68714;48.586;7.772;2023-04-25T02:59:20;1.67;;;1.38;;
79268;SDS011;68714;48.586;7.772;2023-04-25T03:01:46;2.67;;;1.27;;
79268;SDS011;68714;48.586;7.772;2023-04-25T03:04:11;2.85;;;1.52;;
79268;SDS011;68714;48.586;7.772;2023-04-25T03:06:36;2.35;;;1.60;;
79268;SDS011;68714;48.586;7.772;2023-04-25T03:09:02;2.13;;;1.30;;
79268;SDS011;68714;48.586;7.772;2023-04-25T03:11:28;1.80;;;1.15;;
79268;SDS011;68714;48.586;7.772;2023-04-25T03:13:54;1.70;;;1.40;;
79268;SDS011;68714;48.586;7.772;2023-04-25T03:16:19;2.50;;;1.27;;
79268;SDS011;68714;48.586;7.772;2023-04-25T03:18:45;1.75;;;1.20;;
79268;SDS011;68714;48.586;7.772;2023-04-25T03:21:10;2.78;;;1.70;;
79268;SDS011;68714;48.586;7.772;2023-04-25T03:23:36;2.63;;;1.50;;
79268;SDS011;68714;48.586;7.772;2023-04-25T03:26:01;2.90;;;1.65;;
79268;SDS011;68714;48.586;7.772;2023-04-25T03:28:27;1.98;;;1.30;;
79268;SDS011;68714;48.586;7.772;2023-04-25T03:30:52;1.45;;;1.02;;
79268;SDS011;68714;48.586;7.772;2023-04-25T03:33:19;2.30;;;1.60;;
79268;SDS011;68714;48.586;7.772;2023-04-25T03:35:44;1.33;;;1.10;;
79268;SDS011;68714;48.586;7.772;2023-04-25T03:38:09;2.45;;;1.42;;
79268;SDS011;68714;48.586;7.772;2023-04-25T03:40:35;2.05;;;1.40;;
79268;SDS011;68714;48.586;7.772;2023-04-25T03:43:00;3.33;;;1.67;;
79268;SDS011;68714;48.586;7.772;2023-04-25T03:45:26;1.95;;;1.38;;
79268;SDS011;68714;48.586;7.772;2023-04-25T03:47:51;2.78;;;1.50;;
79268;SDS011;68714;48.586;7.772;2023-04-25T03:50:16;3.85;;;1.60;;
79268;SDS011;68714;48.586;7.772;2023-04-25T03:52:42;1.67;;;1.33;;
79268;SDS011;68714;48.586;7.772;2023-04-25T03:55:08;2.72;;;1.58;;
79268;SDS011;68714;48.586;7.772;2023-04-25T03:57:34;2.58;;;1.50;;
79268;SDS011;68714;48.586;7.772;2023-04-25T04:00:00;2.63;;;1.58;;
79268;SDS011;68714;48.586;7.772;2023-04-25T04:02:25;2.53;;;1.60;;
79268;SDS011;68714;48.586;7.772;2023-04-25T04:04:51;2.65;;;1.63;;
79268;SDS011;68714;48.586;7.772;2023-04-25T04:07:16;2.53;;;1.70;;
79268;SDS011;68714;48.586;7.772;2023-04-25T04:09:42;2.25;;;1.58;;
79268;SDS011;68714;48.586;7.772;2023-04-25T04:12:07;1.98;;;1.50;;
79268;SDS011;68714;48.586;7.772;2023-04-25T04:14:32;2.10;;;1.75;;
79268;SDS011;68714;48.586;7.772;2023-04-25T04:16:58;2.83;;;1.77;;
79268;SDS011;68714;48.586;7.772;2023-04-25T04:19:23;2.83;;;1.50;;
79268;SDS011;68714;48.586;7.772;2023-04-25T04:21:49;2.80;;;1.80;;
79268;SDS011;68714;48.586;7.772;2023-04-25T04:24:14;4.40;;;2.28;;
79268;SDS011;68714;48.586;7.772;2023-04-25T04:26:41;3.03;;;2.00;;
79268;SDS011;68714;48.586;7.772;2023-04-25T04:29:10;2.90;;;1.92;;
79268;SDS011;68714;48.586;7.772;2023-04-25T04:31:36;3.78;;;2.00;;
79268;SDS011;68714;48.586;7.772;2023-04-25T04:34:01;3.15;;;1.90;;
79268;SDS011;68714;48.586;7.772;2023-04-25T04:36:28;2.95;;;1.90;;
79268;SDS011;68714;48.586;7.772;2023-04-25T04:38:54;3.03;;;1.60;;
79268;SDS011;68714;48.586;7.772;2023-04-25T04:41:21;3.83;;;2.00;;
79268;SDS011;68714;48.586;7.772;2023-04-25T04:43:47;2.53;;;1.80;;
79268;SDS011;68714;48.586;7.772;2023-04-25T04:46:12;3.05;;;1.90;;
79268;SDS011;68714;48.586;7.772;2023-04-25T04:48:38;5.22;;;2.15;;
79268;SDS011;68714;48.586;7.772;2023-04-25T04:51:05;2.70;;;1.50;;
79268;SDS011;68714;48.586;7.772;2023-04-25T04:53:31;2.53;;;1.63;;
79268;SDS011;68714;48.586;7.772;2023-04-25T04:55:57;2.10;;;1.65;;
79268;SDS011;68714;48.586;7.772;2023-04-25T04:58:23;5.50;;;1.92;;
79268;SDS011;68714;48.586;7.772;2023-04-25T05:00:48;2.33;;;1.48;;
79268;SDS011;68714;48.586;7.772;2023-04-25T05:03:14;2.95;;;2.10;;
79268;SDS011;68714;48.586;7.772;2023-04-25T05:05:39;3.33;;;2.05;;
79268;SDS011;68714;48.586;7.772;2023-04-25T05:08:07;3.80;;;2.35;;
79268;SDS011;68714;48.586;7.772;2023-04-25T05:10:33;2.55;;;1.58;;
79268;SDS011;68714;48.586;7.772;2023-04-25T05:12:58;2.85;;;1.85;;
79268;SDS011;68714;48.586;7.772;2023-04-25T05:15:23;2.90;;;1.67;;
79268;SDS011;68714;48.586;7.772;2023-04-25T05:17:49;3.17;;;2.20;;
79268;SDS011;68714;48.586;7.772;2023-04-25T05:20:14;2.40;;;1.67;;
79268;SDS011;68714;48.586;7.772;2023-04-25T05:22:40;3.63;;;2.05;;
79268;SDS011;68714;48.586;7.772;2023-04-25T05:25:07;2.22;;;1.88;;
79268;SDS011;68714;48.586;7.772;2023-04-25T05:27:33;3.28;;;1.92;;
79268;SDS011;68714;48.586;7.772;2023-04-25T05:29:58;3.30;;;2.00;;
79268;SDS011;68714;48.586;7.772;2023-04-25T05:32:24;2.38;;;1.90;;
79268;SDS011;68714;48.586;7.772;2023-04-25T05:34:50;3.05;;;2.15;;
79268;SDS011;68714;48.586;7.772;2023-04-25T05:37:15;2.25;;;1.75;;
79268;SDS011;68714;48.586;7.772;2023-04-25T05:39:41;2.95;;;2.33;;
79268;SDS011;68714;48.586;7.772;2023-04-25T05:42:07;3.15;;;2.13;;
79268;SDS011;68714;48.586;7.772;2023-04-25T05:44:33;4.43;;;1.83;;
79268;SDS011;68714;48.586;7.772;2023-04-25T05:46:58;2.85;;;1.75;;
79268;SDS011;68714;48.586;7.772;2023-04-25T05:49:24;2.78;;;1.90;;
79268;SDS011;68714;48.586;7.772;2023-04-25T05:51:49;3.88;;;2.42;;
79268;SDS011;68714;48.586;7.772;2023-04-25T05:54:15;4.55;;;2.75;;
79268;SDS011;68714;48.586;7.772;2023-04-25T05:56:40;6.50;;;2.75;;
79268;SDS011;68714;48.586;7.772;2023-04-25T05:59:06;3.63;;;1.80;;
79268;SDS011;68714;48.586;7.772;2023-04-25T06:01:32;2.75;;;1.73;;
79268;SDS011;68714;48.586;7.772;2023-04-25T06:03:58;4.55;;;2.83;;
79268;SDS011;68714;48.586;7.772;2023-04-25T06:06:23;4.25;;;2.45;;
79268;SDS011;68714;48.586;7.772;2023-04-25T06:08:49;4.90;;;2.50;;
79268;SDS011;68714;48.586;7.772;2023-04-25T06:11:14;5.30;;;2.40;;
79268;SDS011;68714;48.586;7.772;2023-04-25T06:13:39;2.58;;;1.77;;
79268;SDS011;68714;48.586;7.772;2023-04-25T06:16:05;3.47;;;1.58;;
79268;SDS011;68714;48.586;7.772;2023-04-25T06:18:31;3.42;;;2.20;;
79268;SDS011;68714;48.586;7.772;2023-04-25T06:20:56;4.10;;;1.77;;
79268;SDS011;68714;48.586;7.772;2023-04-25T06:23:21;3.08;;;1.85;;
79268;SDS011;68714;48.586;7.772;2023-04-25T06:25:47;2.67;;;1.63;;
79268;SDS011;68714;48.586;7.772;2023-04-25T06:31:03;2.88;;;1.48;;
79268;SDS011;68714;48.586;7.772;2023-04-25T06:33:29;3.70;;;1.60;;
79268;SDS011;68714;48.586;7.772;2023-04-25T06:35:54;3.03;;;1.30;;
79268;SDS011;68714;48.586;7.772;2023-04-25T06:38:21;3.20;;;1.35;;
79268;SDS011;68714;48.586;7.772;2023-04-25T06:40:50;2.00;;;1.00;;
79268;SDS011;68714;48.586;7.772;2023-04-25T06:43:16;1.40;;;0.65;;
79268;SDS011;68714;48.586;7.772;2023-04-25T06:45:41;1.35;;;0.77;;
79268;SDS011;68714;48.586;7.772;2023-04-25T06:48:07;1.60;;;0.90;;
79268;SDS011;68714;48.586;7.772;2023-04-25T06:50:33;1.65;;;0.80;;
79268;SDS011;68714;48.586;7.772;2023-04-25T06:52:59;1.77;;;1.10;;
79268;SDS011;68714;48.586;7.772;2023-04-25T06:55:26;2.72;;;1.13;;
79268;SDS011;68714;48.586;7.772;2023-04-25T06:57:52;3.53;;;1.10;;
79268;SDS011;68714;48.586;7.772;2023-04-25T07:00:17;2.75;;;0.90;;
79268;SDS011;68714;48.586;7.772;2023-04-25T07:02:43;1.13;;;0.90;;
79268;SDS011;68714;48.586;7.772;2023-04-25T07:05:09;1.25;;;0.80;;
79268;SDS011;68714;48.586;7.772;2023-04-25T07:07:34;12.20;;;1.85;;
79268;SDS011;68714;48.586;7.772;2023-04-25T07:10:00;1.20;;;0.75;;
79268;SDS011;68714;48.586;7.772;2023-04-25T07:12:25;2.33;;;0.85;;
79268;SDS011;68714;48.586;7.772;2023-04-25T07:14:51;3.72;;;0.95;;
79268;SDS011;68714;48.586;7.772;2023-04-25T07:17:16;1.70;;;0.93;;
79268;SDS011;68714;48.586;7.772;2023-04-25T07:19:42;1.75;;;0.80;;
79268;SDS011;68714;48.586;7.772;2023-04-25T07:22:09;1.30;;;0.68;;
79268;SDS011;68714;48.586;7.772;2023-04-25T07:24:36;2.60;;;0.70;;
79268;SDS011;68714;48.586;7.772;2023-04-25T07:27:02;0.98;;;0.60;;
79268;SDS011;68714;48.586;7.772;2023-04-25T07:29:28;2.20;;;0.65;;
79268;SDS011;68714;48.586;7.772;2023-04-25T07:31:54;0.63;;;0.57;;
79268;SDS011;68714;48.586;7.772;2023-04-25T07:34:20;2.20;;;0.85;;
79268;SDS011;68714;48.586;7.772;2023-04-25T07:36:46;0.88;;;0.70;;
79268;SDS011;68714;48.586;7.772;2023-04-25T07:39:11;0.73;;;0.70;;
79268;SDS011;68714;48.586;7.772;2023-04-25T07:41:37;1.27;;;0.60;;
79268;SDS011;68714;48.586;7.772;2023-04-25T07:44:03;1.08;;;0.80;;
79268;SDS011;68714;48.586;7.772;2023-04-25T07:46:28;1.70;;;0.73;;
79268;SDS011;68714;48.586;7.772;2023-04-25T07:48:54;0.80;;;0.75;;
79268;SDS011;68714;48.586;7.772;2023-04-25T07:51:19;1.27;;;0.70;;
79268;SDS011;68714;48.586;7.772;2023-04-25T07:53:47;3.95;;;0.85;;
79268;SDS011;68714;48.586;7.772;2023-04-25T07:56:12;2.25;;;0.70;;
79268;SDS011;68714;48.586;7.772;2023-04-25T07:58:38;0.98;;;0.63;;
79268;SDS011;68714;48.586;7.772;2023-04-25T08:01:03;0.80;;;0.68;;
79268;SDS011;68714;48.586;7.772;2023-04-25T08:03:29;2.10;;;1.02;;
79268;SDS011;68714;48.586;7.772;2023-04-25T08:05:54;0.75;;;0.60;;
79268;SDS011;68714;48.586;7.772;2023-04-25T08:08:22;4.28;;;0.90;;
79268;SDS011;68714;48.586;7.772;2023-04-25T08:10:47;1.20;;;0.60;;
79268;SDS011;68714;48.586;7.772;2023-04-25T08:13:13;0.85;;;0.70;;
79268;SDS011;68714;48.586;7.772;2023-04-25T08:15:41;0.70;;;0.60;;
79268;SDS011;68714;48.586;7.772;2023-04-25T08:18:06;1.85;;;1.00;;
79268;SDS011;68714;48.586;7.772;2023-04-25T08:20:32;4.85;;;0.90;;
79268;SDS011;68714;48.586;7.772;2023-04-25T08:22:57;0.90;;;0.50;;
79268;SDS011;68714;48.586;7.772;2023-04-25T08:25:23;1.42;;;0.75;;
79268;SDS011;68714;48.586;7.772;2023-04-25T08:27:49;1.05;;;0.80;;
79268;SDS011;68714;48.586;7.772;2023-04-25T08:30:14;2.35;;;0.60;;
79268;SDS011;68714;48.586;7.772;2023-04-25T08:32:40;0.47;;;0.40;;
79268;SDS011;68714;48.586;7.772;2023-04-25T08:35:05;1.25;;;0.50;;
79268;SDS011;68714;48.586;7.772;2023-04-25T08:37:32;0.30;;;0.30;;
79268;SDS011;68714;48.586;7.772;2023-04-25T08:39:57;1.27;;;0.55;;
79268;SDS011;68714;48.586;7.772;2023-04-25T08:42:23;1.63;;;0.60;;
79268;SDS011;68714;48.586;7.772;2023-04-25T08:44:49;0.80;;;0.50;;
79268;SDS011;68714;48.586;7.772;2023-04-25T08:47:19;1.65;;;0.60;;
79268;SDS011;68714;48.586;7.772;2023-04-25T08:49:47;0.70;;;0.52;;
79268;SDS011;68714;48.586;7.772;2023-04-25T08:52:14;1.75;;;0.50;;
79268;SDS011;68714;48.586;7.772;2023-04-25T08:54:42;1.08;;;0.70;;
79268;SDS011;68714;48.586;7.772;2023-04-25T08:57:11;1.23;;;0.60;;
79268;SDS011;68714;48.586;7.772;2023-04-25T08:59:37;0.68;;;0.52;;
79268;SDS011;68714;48.586;7.772;2023-04-25T09:02:09;1.20;;;0.82;;
79268;SDS011;68714;48.586;7.772;2023-04-25T09:04:39;1.13;;;0.70;;
79268;SDS011;68714;48.586;7.772;2023-04-25T09:07:05;1.42;;;0.50;;
79268;SDS011;68714;48.586;7.772;2023-04-25T09:09:31;0.93;;;0.60;;
79268;SDS011;68714;48.586;7.772;2023-04-25T09:11:56;1.08;;;0.80;;
79268;SDS011;68714;48.586;7.772;2023-04-25T09:14:23;1.40;;;0.75;;
79268;SDS011;68714;48.586;7.772;2023-04-25T09:16:57;1.33;;;0.90;;
79268;SDS011;68714;48.586;7.772;2023-04-25T09:19:28;0.65;;;0.60;;
79268;SDS011;68714;48.586;7.772;2023-04-25T09:21:58;0.95;;;0.73;;
79268;SDS011;68714;48.586;7.772;2023-04-25T09:27:09;2.92;;;1.00;;
79268;SDS011;68714;48.586;7.772;2023-04-25T09:29:36;1.02;;;0.73;;
79268;SDS011;68714;48.586;7.772;2023-04-25T09:32:22;1.17;;;0.80;;
79268;SDS011;68714;48.586;7.772;2023-04-25T09:34:49;1.75;;;0.93;;
79268;SDS011;68714;48.586;7.772;2023-04-25T09:37:23;1.70;;;0.80;;
79268;SDS011;68714;48.586;7.772;2023-04-25T09:39:51;2.75;;;1.25;;
79268;SDS011;68714;48.586;7.772;2023-04-25T09:42:20;2.85;;;1.20;;
79268;SDS011;68714;48.586;7.772;2023-04-25T09:44:51;2.10;;;1.00;;
79268;SDS011;68714;48.586;7.772;2023-04-25T09:49:47;3.17;;;0.77;;
79268;SDS011;68714;48.586;7.772;2023-04-25T09:52:16;4.07;;;1.10;;
79268;SDS011;68714;48.586;7.772;2023-04-25T09:54:46;1.45;;;0.85;;
79268;SDS011;68714;48.586;7.772;2023-04-25T09:57:14;3.58;;;1.17;;
79268;SDS011;68714;48.586;7.772;2023-04-25T09:59:44;2.00;;;1.10;;
79268;SDS011;68714;48.586;7.772;2023-04-25T10:02:11;1.58;;;0.90;;
79268;SDS011;68714;48.586;7.772;2023-04-25T10:04:38;1.88;;;0.82;;
79268;SDS011;68714;48.586;7.772;2023-04-25T10:07:07;1.30;;;0.73;;
79268;SDS011;68714;48.586;7.772;2023-04-25T10:09:33;1.00;;;0.82;;
79268;SDS011;68714;48.586;7.772;2023-04-25T10:12:02;2.15;;;1.02;;
79268;SDS011;68714;48.586;7.772;2023-04-25T10:14:31;1.80;;;1.10;;
79268;SDS011;68714;48.586;7.772;2023-04-25T10:16:57;1.43;;;0.70;;
79268;SDS011;68714;48.586;7.772;2023-04-25T10:19:24;2.22;;;1.10;;
79268;SDS011;68714;48.586;7.772;2023-04-25T10:21:55;1.00;;;0.90;;
79268;SDS011;68714;48.586;7.772;2023-04-25T10:24:32;2.47;;;1.20;;
79268;SDS011;68714;48.586;7.772;2023-04-25T10:27:00;1.40;;;0.90;;
79268;SDS011;68714;48.586;7.772;2023-04-25T10:29:28;1.52;;;0.90;;
79268;SDS011;68714;48.586;7.772;2023-04-25T10:31:54;1.40;;;1.17;;
79268;SDS011;68714;48.586;7.772;2023-04-25T10:34:23;2.55;;;1.20;;
79268;SDS011;68714;48.586;7.772;2023-04-25T10:36:51;1.77;;;1.38;;
79268;SDS011;68714;48.586;7.772;2023-04-25T10:39:24;1.23;;;0.93;;
79268;SDS011;68714;48.586;7.772;2023-04-25T10:41:52;1.70;;;0.98;;
79268;SDS011;68714;48.586;7.772;2023-04-25T10:44:22;1.58;;;0.90;;
79268;SDS011;68714;48.586;7.772;2023-04-25T10:46:47;2.38;;;1.35;;
79268;SDS011;68714;48.586;7.772;2023-04-25T10:49:59;1.98;;;1.05;;
79268;SDS011;68714;48.586;7.772;2023-04-25T10:52:15;2.33;;;1.20;;
79268;SDS011;68714;48.586;7.772;2023-04-25T10:55:02;1.20;;;0.88;;
79268;SDS011;68714;48.586;7.772;2023-04-25T10:57:39;1.38;;;0.93;;
79268;SDS011;68714;48.586;7.772;2023-04-25T11:05:25;1.98;;;1.15;;
79268;SDS011;68714;48.586;7.772;2023-04-25T11:07:59;1.67;;;1.05;;
79268;SDS011;68714;48.586;7.772;2023-04-25T11:10:30;2.38;;;1.30;;
79268;SDS011;68714;48.586;7.772;2023-04-25T11:13:20;1.83;;;1.30;;
79268;SDS011;68714;48.586;7.772;2023-04-25T11:15:54;2.33;;;1.40;;
79268;SDS011;68714;48.586;7.772;2023-04-25T11:18:20;3.80;;;1.40;;
79268;SDS011;68714;48.586;7.772;2023-04-25T11:20:46;1.95;;;1.40;;
79268;SDS011;68714;48.586;7.772;2023-04-25T11:23:14;2.43;;;1.43;;
79268;SDS011;68714;48.586;7.772;2023-04-25T11:25:40;2.33;;;1.50;;
79268;SDS011;68714;48.586;7.772;2023-04-25T11:28:07;3.17;;;1.23;;
79268;SDS011;68714;48.586;7.772;2023-04-25T11:30:32;1.90;;;1.40;;
79268;SDS011;68714;48.586;7.772;2023-04-25T11:32:58;2.55;;;1.50;;
79268;SDS011;68714;48.586;7.772;2023-04-25T11:35:24;1.50;;;1.13;;
79268;SDS011;68714;48.586;7.772;2023-04-25T11:37:50;1.83;;;1.23;;
79268;SDS011;68714;48.586;7.772;2023-04-25T11:40:17;1.38;;;1.20;;
79268;SDS011;68714;48.586;7.772;2023-04-25T11:42:43;2.13;;;1.20;;
79268;SDS011;68714;48.586;7.772;2023-04-25T11:45:10;2.70;;;1.55;;
79268;SDS011;68714;48.586;7.772;2023-04-25T11:47:36;1.45;;;0.95;;
79268;SDS011;68714;48.586;7.772;2023-04-25T11:50:04;2.05;;;1.33;;
79268;SDS011;68714;48.586;7.772;2023-04-25T11:52:39;1.75;;;1.00;;
79268;SDS011;68714;48.586;7.772;2023-04-25T11:55:09;2.22;;;1.40;;
79268;SDS011;68714;48.586;7.772;2023-04-25T11:57:45;1.73;;;1.30;;
79268;SDS011;68714;48.586;7.772;2023-04-25T12:02:44;1.85;;;1.70;;
79268;SDS011;68714;48.586;7.772;2023-04-25T12:05:17;3.47;;;2.13;;
79268;SDS011;68714;48.586;7.772;2023-04-25T12:07:44;2.28;;;1.88;;
79268;SDS011;68714;48.586;7.772;2023-04-25T12:10:11;2.17;;;1.92;;
79268;SDS011;68714;48.586;7.772;2023-04-25T12:12:38;2.60;;;1.77;;
79268;SDS011;68714;48.586;7.772;2023-04-25T12:17:36;2.33;;;1.50;;
79268;SDS011;68714;48.586;7.772;2023-04-25T12:20:07;3.45;;;1.58;;
79268;SDS011;68714;48.586;7.772;2023-04-25T12:22:34;3.83;;;2.13;;
79268;SDS011;68714;48.586;7.772;2023-04-25T12:24:59;5.35;;;2.50;;
79268;SDS011;68714;48.586;7.772;2023-04-25T12:27:25;3.70;;;2.70;;
79268;SDS011;68714;48.586;7.772;2023-04-25T12:29:55;3.13;;;2.60;;
79268;SDS011;68714;48.586;7.772;2023-04-25T12:32:21;5.22;;;2.30;;
79268;SDS011;68714;48.586;7.772;2023-04-25T12:34:47;4.18;;;1.90;;
79268;SDS011;68714;48.586;7.772;2023-04-25T12:37:13;3.33;;;1.52;;
79268;SDS011;68714;48.586;7.772;2023-04-25T12:39:38;3.17;;;1.02;;
79268;SDS011;68714;48.586;7.772;2023-04-25T12:42:04;6.22;;;1.20;;
79268;SDS011;68714;48.586;7.772;2023-04-25T12:44:30;2.95;;;1.10;;
79268;SDS011;68714;48.586;7.772;2023-04-25T12:46:55;1.98;;;1.10;;
79268;SDS011;68714;48.586;7.772;2023-04-25T12:49:21;2.58;;;1.50;;
79268;SDS011;68714;48.586;7.772;2023-04-25T12:51:47;1.33;;;1.10;;
79268;SDS011;68714;48.586;7.772;2023-04-25T12:54:13;3.22;;;1.70;;
79268;SDS011;68714;48.586;7.772;2023-04-25T12:56:39;3.42;;;1.92;;
79268;SDS011;68714;48.586;7.772;2023-04-25T12:59:06;2.17;;;1.50;;
79268;SDS011;68714;48.586;7.772;2023-04-25T13:01:31;1.63;;;1.10;;
79268;SDS011;68714;48.586;7.772;2023-04-25T13:03:57;2.80;;;1.02;;
79268;SDS011;68714;48.586;7.772;2023-04-25T13:06:23;2.17;;;1.08;;
79268;SDS011;68714;48.586;7.772;2023-04-25T13:08:48;1.60;;;1.17;;
79268;SDS011;68714;48.586;7.772;2023-04-25T13:11:14;0.95;;;0.70;;
79268;SDS011;68714;48.586;7.772;2023-04-25T13:13:40;2.10;;;1.17;;
79268;SDS011;68714;48.586;7.772;2023-04-25T13:16:05;0.95;;;0.65;;
79268;SDS011;68714;48.586;7.772;2023-04-25T13:18:32;1.00;;;0.70;;
79268;SDS011;68714;48.586;7.772;2023-04-25T13:20:58;1.48;;;0.98;;
79268;SDS011;68714;48.586;7.772;2023-04-25T13:23:27;1.15;;;0.75;;
79268;SDS011;68714;48.586;7.772;2023-04-25T13:25:54;1.65;;;0.90;;
79268;SDS011;68714;48.586;7.772;2023-04-25T13:28:21;0.63;;;0.63;;
79268;SDS011;68714;48.586;7.772;2023-04-25T13:30:47;1.48;;;1.00;;
79268;SDS011;68714;48.586;7.772;2023-04-25T13:33:13;1.27;;;0.98;;
79268;SDS011;68714;48.586;7.772;2023-04-25T13:35:40;1.48;;;1.10;;
79268;SDS011;68714;48.586;7.772;2023-04-25T13:38:06;1.88;;;0.95;;
79268;SDS011;68714;48.586;7.772;2023-04-25T13:40:31;2.22;;;1.00;;
79268;SDS011;68714;48.586;7.772;2023-04-25T13:42:57;3.72;;;0.90;;
79268;SDS011;68714;48.586;7.772;2023-04-25T13:45:24;3.53;;;1.27;;
79268;SDS011;68714;48.586;7.772;2023-04-25T13:47:50;1.58;;;1.20;;
79268;SDS011;68714;48.586;7.772;2023-04-25T13:50:16;1.40;;;1.10;;
79268;SDS011;68714;48.586;7.772;2023-04-25T13:52:41;2.05;;;1.10;;
79268;SDS011;68714;48.586;7.772;2023-04-25T13:55:08;2.58;;;1.50;;
79268;SDS011;68714;48.586;7.772;2023-04-25T13:57:35;1.58;;;1.30;;
79268;SDS011;68714;48.586;7.772;2023-04-25T14:00:01;1.70;;;1.27;;
79268;SDS011;68714;48.586;7.772;2023-04-25T14:02:49;1.67;;;1.30;;
79268;SDS011;68714;48.586;7.772;2023-04-25T14:05:15;1.35;;;1.15;;
79268;SDS011;68714;48.586;7.772;2023-04-25T14:07:40;1.45;;;1.17;;
79268;SDS011;68714;48.586;7.772;2023-04-25T14:10:06;2.50;;;1.40;;
79268;SDS011;68714;48.586;7.772;2023-04-25T14:12:32;1.05;;;0.90;;
79268;SDS011;68714;48.586;7.772;2023-04-25T14:14:58;2.53;;;1.33;;
79268;SDS011;68714;48.586;7.772;2023-04-25T14:17:23;1.75;;;1.10;;
79268;SDS011;68714;48.586;7.772;2023-04-25T14:19:49;2.05;;;1.13;;
79268;SDS011;68714;48.586;7.772;2023-04-25T14:22:15;1.27;;;1.00;;
79268;SDS011;68714;48.586;7.772;2023-04-25T14:24:41;1.08;;;0.90;;
79268;SDS011;68714;48.586;7.772;2023-04-25T14:27:06;1.42;;;0.90;;
79268;SDS011;68714;48.586;7.772;2023-04-25T14:29:32;1.02;;;0.90;;
79268;SDS011;68714;48.586;7.772;2023-04-25T14:31:57;1.35;;;1.10;;
79268;SDS011;68714;48.586;7.772;2023-04-25T14:34:24;1.83;;;1.02;;
79268;SDS011;68714;48.586;7.772;2023-04-25T14:36:50;0.93;;;0.80;;
79268;SDS011;68714;48.586;7.772;2023-04-25T14:39:16;2.95;;;1.30;;
79268;SDS011;68714;48.586;7.772;2023-04-25T14:41:43;1.38;;;0.90;;
79268;SDS011;68714;48.586;7.772;2023-04-25T14:44:08;1.35;;;1.08;;
79268;SDS011;68714;48.586;7.772;2023-04-25T14:46:34;1.23;;;1.00;;
79268;SDS011;68714;48.586;7.772;2023-04-25T14:49:00;1.23;;;1.13;;
79268;SDS011;68714;48.586;7.772;2023-04-25T14:51:26;1.27;;;1.00;;
79268;SDS011;68714;48.586;7.772;2023-04-25T14:53:52;1.45;;;0.90;;
79268;SDS011;68714;48.586;7.772;2023-04-25T14:56:18;0.98;;;0.88;;
79268;SDS011;68714;48.586;7.772;2023-04-25T14:58:43;1.30;;;0.93;;
79268;SDS011;68714;48.586;7.772;2023-04-25T15:01:10;1.15;;;0.90;;
79268;SDS011;68714;48.586;7.772;2023-04-25T15:03:36;1.25;;;1.05;;